ESSB/BMA METAR and TAF weather

Enter ICAO airport designator
Station Type Date Time Source
ESSB METAR 2022/07/01 02:20 UTC NOAA

ESSB 010220Z AUTO 05004KT 020V080 9999 FEW010/// BKN088/// BKN110/// 20/18 Q1015


Station Type Date Time Source
ESSB Decoded METAR 2022/07/01 02:20 UTC NOAA

Stockholm / Bromma, Sweden (ESSB) 59-21N 017-57E 14M
Jun 30, 2022 - 10:20 PM EDT / 2022.07.01 0220 UTC
Wind: from the NE (050 degrees) at 5 MPH (4 KT) (direction variable):0
Visibility: greater than 7 mile(s):0
Sky conditions: mostly cloudy
Temperature: 68 F (20 C)
Dew Point: 64 F (18 C)
Relative Humidity: 88%
Pressure (altimeter): 29.97 in. Hg (1015 hPa)
ob: ESSB 010220Z AUTO 05004KT 020V080 9999 FEW010

Station Type Date Time Source
ESSB TAF 2017/03/27 06:35 UTC NOAA

TAF ESSB 270530Z 2706/2724 27008KT CAVOK
BECMG 2710/2713 29015G25KT

Example: see airport list